Culiacan International Airport
MMCL : now visible

Airfield :











YOU CAN JOIN US ON...

 
LOGIN :

Register | Disclaimer

   EN    FR    IT 

 









Legend :    VFR   Marginal VFR   IFR   Intensive IFR   Very Intensive IFR
Visi :
Ceiling :
>= 8 km
>= 3000ft
5 to 8 km
1000 to 3000 ft
1500m to 5 km
500 to 1000 ft
800 to 1500m
200 to 500 ft
< 800m
< 200 ft
Symbols :   Thunderstorms  Fog  Heavy snow  Heavy precipitations  Wind > 20 kt






- Airport Elevation : 108 ft
- IATA code : CUL


MMCL - Culiacan International

CURRENT METAR :
  • 192052Z 22008G18KT 10SM FEW030 SCT120 SCT250 36/22 A2984 RMK SLP099 57024 960 8/132 DSNT CB 1ST 2ND QUAD HZY

EXPIRED METARs :
  • 191947Z 18005KT 10SM FEW030 SCT120 36/19 A2987 RMK 8/130 HZY
  • 191850Z 18003KT 10SM FEW030 SCT120 35/19 A2989 RMK 8/130 HZY
  • 191740Z 11004KT 10SM FEW025 SCT120 33/21 A2991 RMK SLP124 57013 954 8/130
  • 191651Z 15006KT 10SM SCT020 BKN090 33/21 A2993 RMK 8/530 HZY

TAF TAF MMCL
Valid from the 19 at 18:00 until the 20 at 18:00 UTC


191610Z 1918/2018 24010KT P6SM SCT020 BKN080 BKN200
BECMG 1923/1924 6SM -RA BKN020CB
TEMPO 2000/2004 4SM TSRA
FM200400 00000KT 6SM VC RA SCT015CB BKN100 OVC200
FM200900 00000KT 6SM HZ SCT015 BKN100 BKN250
FM201600 19006KT P6SM BKN020 BKN120
MMFR FIR / North America



MET'MAP, your aeronautical weather chart ! - Copyright ORBIFLY December 2007 - Disclaimer

ORBIFLY MET'MAP TEAM :

Programming & Development : Alexandra Zaïnal
Original concept : Baudouin d'Aumeries
Technical & hardware support : Manuel Goepfert
Assistance : Marc-Olivier Méhu




SOURCES & CREDITS :

   NOAA       Earth
Advisory